Mc Bee, South Carolina
Current Conditions -  °F | °C
As of 3:35 AM on Thursday 27 Nov 2014 (Local Time) from KUDG Reporting Station
Overcast Overcast  
Wind Chill: 39°   Ceiling: 8500
Heat Index: 43°   Visibility: 10mi
Dew Point: 37°   Wind: 6mph
Humidity: 81%   Direction: 220°SW
Pressure: 30.05"   Gusts: NA
Location:  34.5053°N, 80.249°W
Report Text: KUDG 270835Z AUTO 22005KT 10SM OVC085 06/03 A3005 RMK AO1
Loading
Personal Weather Stations






























Interactive Weather Map New forecast layout! Learn more

10-Day Weather Forecast

Advertisements
Track Severe Weather on mobile